首页
METAR-TAF:

METAR-TAF

机场 :

Sheridan County Airport

Sheridan, 怀俄明州, 美国

纬度: 44-46-10N, 经度: 106-58-08W, 海拔: 1225米

当前天气观测

该预报发布于9分钟前的18:53 UTC
风速17节,风向西北,有时为25节阵风
温度 11°C
湿度 28%
气压 1012 hPa
能見度: 16.1公里
多云层高于7000英尺
多云层高于8500英尺

METAR: KSHR 281853Z AUTO 32017G25KT 10SM BKN070 BKN085 11/M07 A2989 RMK AO2 PK WND 33030/1836 SLP132 T01061067

时间: 13:02 (19:02 UTC)

预报

该预报发布于1小时和38分钟前的17:24 UTC
预报有效从28日的 18点(UTC)到 29日的 18点(UTC)
风速14节,风向北转西北
能見度: 10公里
阴天层高于9000英尺
从 29日的 0300点(UTC)
风速4节,风向多变
能見度: 10公里
多云层高于25000英尺

TAF: KSHR 281724Z 2818/2918 34014KT P6SM OVC090 FM290300 VRB04KT P6SM BKN250

超过4000个机场的气象观测和天气预报(METAR&TAF报告)。

可查询的气象台以黄色和红色小点在地图上表示。

将鼠标移到小点上方,可查看气象台名称。

然后点击查看天气观测和预报。

如需切换地图:点击带黑十字的绿色按钮放大地图;点击带横线的绿色按钮缩小地图;或者点击绿色箭头查看邻近地区的地图。


METAR-TAF: